Time;durP1;ratioP1;P1;durP2;ratioP2;P2;SDS_P1;SDS_P2;PMS_P1;PMS_P2;Temp;Humidity;BMP_temperature;BMP_pressure;BME280_temperature;BME280_humidity;BME280_pressure;Samples;Min_cycle;Max_cycle;Signal;HPM_P1;HPM_P2
2022/04/01 00:02:22;;;;;;;19.17;13.55;;;6.60;99.90;;;;;;5073527;28;20661;-69
2022/04/01 00:04:50;;;;;;;18.13;12.05;;;6.70;99.90;;;;;;5073338;28;20222;-69
2022/04/01 00:07:17;;;;;;;21.35;13.50;;;6.60;99.90;;;;;;5073601;28;20209;-69
2022/04/01 00:09:44;;;;;;;19.80;12.50;;;6.60;99.90;;;;;;5073572;28;20309;-69
2022/04/01 00:12:11;;;;;;;19.10;12.25;;;6.80;99.90;;;;;;5073549;28;20214;-69
2022/04/01 00:14:38;;;;;;;17.27;11.60;;;6.70;99.90;;;;;;5073204;28;20549;-69
2022/04/01 00:17:05;;;;;;;18.98;12.30;;;6.80;99.90;;;;;;5073490;28;20211;-69
2022/04/01 00:19:32;;;;;;;17.60;12.10;;;7.00;99.90;;;;;;5074463;28;20223;-69
2022/04/01 00:22:01;;;;;;;17.73;11.65;;;7.10;99.90;;;;;;5077806;28;20266;-69
2022/04/01 00:24:28;;;;;;;18.95;11.88;;;7.00;99.90;;;;;;5084601;28;20707;-70
2022/04/01 00:26:55;;;;;;;18.60;13.18;;;7.00;99.90;;;;;;5077546;28;20213;-70
2022/04/01 00:29:22;;;;;;;17.67;12.88;;;7.00;99.90;;;;;;5077586;28;20229;-69
2022/04/01 00:31:50;;;;;;;21.67;13.80;;;6.90;99.90;;;;;;5077307;28;20207;-70
2022/04/01 00:34:17;;;;;;;20.52;14.18;;;6.80;99.90;;;;;;5077052;28;20297;-69
2022/04/01 00:36:45;;;;;;;22.30;15.30;;;6.60;99.90;;;;;;5077409;28;20309;-69
2022/04/01 00:39:14;;;;;;;23.08;14.95;;;6.50;99.90;;;;;;5077206;28;20248;-70
2022/04/01 00:41:42;;;;;;;24.50;15.80;;;6.30;99.90;;;;;;5077364;28;20558;-69
2022/04/01 00:44:15;;;;;;;27.90;15.45;;;6.20;99.90;;;;;;5076914;28;20206;-69
2022/04/01 00:46:42;;;;;;;27.35;16.58;;;6.30;99.90;;;;;;5076911;28;20202;-70
2022/04/01 00:49:09;;;;;;;23.42;16.23;;;6.10;99.90;;;;;;5076976;28;20276;-69
2022/04/01 00:51:37;;;;;;;23.98;15.10;;;5.90;99.90;;;;;;5077122;28;20199;-70
2022/04/01 00:54:05;;;;;;;25.00;15.30;;;6.10;99.90;;;;;;5076656;28;20211;-69
2022/04/01 00:56:35;;;;;;;25.63;15.25;;;6.20;99.90;;;;;;5076873;28;20229;-69
2022/04/01 00:59:03;;;;;;;19.35;14.68;;;6.30;99.90;;;;;;5076970;28;20233;-70
2022/04/01 01:01:31;;;;;;;23.85;14.82;;;6.30;99.90;;;;;;5076874;28;20214;-70
2022/04/01 01:03:58;;;;;;;26.13;16.13;;;6.20;99.90;;;;;;5076612;28;20202;-69
2022/04/01 01:06:26;;;;;;;20.83;14.48;;;6.20;99.90;;;;;;5076732;28;20222;-69
2022/04/01 01:08:54;;;;;;;20.02;14.13;;;6.10;99.90;;;;;;5076942;28;20254;-70
2022/04/01 01:11:21;;;;;;;22.98;13.50;;;5.80;99.90;;;;;;5076705;28;20211;-69
2022/04/01 01:13:49;;;;;;;22.48;14.00;;;5.60;99.90;;;;;;5076444;28;20207;-69
2022/04/01 01:16:16;;;;;;;21.05;14.27;;;5.60;99.90;;;;;;5076677;28;20289;-70
2022/04/01 01:18:43;;;;;;;21.40;14.13;;;5.50;99.90;;;;;;5076484;28;20739;-69
2022/04/01 01:21:10;;;;;;;19.90;13.73;;;5.40;99.90;;;;;;5076587;28;20229;-69
2022/04/01 01:23:39;;;;;;;23.38;14.45;;;5.40;99.90;;;;;;5076364;28;20206;-69
2022/04/01 01:26:07;;;;;;;22.63;14.65;;;5.40;99.90;;;;;;5076420;28;20296;-69
2022/04/01 01:28:35;;;;;;;22.73;14.20;;;5.50;99.90;;;;;;5076038;28;20230;-69
2022/04/01 01:31:03;;;;;;;21.58;13.40;;;5.60;99.90;;;;;;5076442;28;20573;-69
2022/04/01 01:33:30;;;;;;;20.95;14.48;;;5.50;99.90;;;;;;5075861;28;20553;-69
2022/04/01 01:35:57;;;;;;;22.15;13.90;;;5.60;99.90;;;;;;5076353;28;20202;-69
2022/04/01 01:38:24;;;;;;;21.70;14.70;;;5.50;99.90;;;;;;5076121;28;20241;-69
2022/04/01 01:40:52;;;;;;;21.63;14.60;;;5.50;99.90;;;;;;5076270;28;20213;-70
2022/04/01 01:43:22;;;;;;;22.83;13.90;;;5.50;99.90;;;;;;5076019;28;20203;-70
2022/04/01 01:45:48;;;;;;;20.45;13.10;;;5.50;99.90;;;;;;5076034;28;20233;-69
2022/04/01 01:48:17;;;;;;;20.15;12.68;;;5.60;99.90;;;;;;5076002;28;20293;-70
2022/04/01 01:56:12;;;;;;;19.63;12.55;;;5.70;99.90;;;;;;5076049;28;20198;-70
2022/04/01 01:58:40;;;;;;;18.75;13.52;;;5.60;99.90;;;;;;5075918;28;20218;-70
2022/04/01 02:01:07;;;;;;;19.50;13.35;;;5.50;99.90;;;;;;5075786;28;20199;-70
2022/04/01 02:03:34;;;;;;;21.45;14.73;;;5.40;99.90;;;;;;5075640;28;20198;-69
2022/04/01 02:06:02;;;;;;;18.27;12.05;;;5.30;99.90;;;;;;5075343;28;20708;-69
2022/04/01 02:08:29;;;;;;;19.85;13.35;;;5.30;99.90;;;;;;5075440;28;20297;-69
2022/04/01 02:10:56;;;;;;;18.70;13.30;;;5.40;99.90;;;;;;5075691;28;20227;-70
2022/04/01 02:13:23;;;;;;;19.75;12.52;;;5.50;99.90;;;;;;5075459;28;20207;-70
2022/04/01 02:15:52;;;;;;;17.20;12.30;;;5.60;99.90;;;;;;5075492;28;20207;-69
2022/04/01 02:18:20;;;;;;;15.35;11.95;;;5.80;99.90;;;;;;5075171;28;20199;-69
2022/04/01 02:20:47;;;;;;;18.27;12.30;;;6.00;99.90;;;;;;5075131;28;20724;-69
2022/04/01 02:23:14;;;;;;;13.93;10.38;;;6.10;99.90;;;;;;5075139;28;20203;-69
2022/04/01 02:25:42;;;;;;;19.58;11.80;;;6.20;99.90;;;;;;5075226;28;20580;-70
2022/04/01 02:28:09;;;;;;;16.15;11.32;;;6.20;99.90;;;;;;5074920;28;20683;-69
2022/04/01 02:30:36;;;;;;;16.70;11.30;;;6.30;99.90;;;;;;5075356;28;20198;-70
2022/04/01 02:33:06;;;;;;;14.43;10.30;;;6.30;99.90;;;;;;5074830;28;20203;-70
2022/04/01 02:35:33;;;;;;;16.35;11.95;;;6.40;99.90;;;;;;5075219;28;20213;-70
2022/04/01 02:37:59;;;;;;;15.32;11.30;;;6.40;99.90;;;;;;5075111;28;20280;-70
2022/04/01 02:40:26;;;;;;;15.43;10.80;;;6.40;99.90;;;;;;5075059;28;20223;-69
2022/04/01 02:42:54;;;;;;;16.63;11.68;;;6.30;99.90;;;;;;5074893;28;20205;-70
2022/04/01 02:45:21;;;;;;;16.60;12.93;;;6.30;99.90;;;;;;5073993;28;20319;-70
2022/04/01 02:47:48;;;;;;;15.02;12.18;;;6.20;99.90;;;;;;5074877;28;20203;-69
2022/04/01 02:50:16;;;;;;;17.13;12.25;;;6.00;99.90;;;;;;5074815;28;20583;-69
2022/04/01 02:52:43;;;;;;;20.45;13.40;;;5.90;99.90;;;;;;5074685;28;20213;-69
2022/04/01 02:55:10;;;;;;;19.17;13.70;;;5.90;99.90;;;;;;5074481;28;20205;-69
2022/04/01 02:57:37;;;;;;;18.80;13.82;;;6.00;99.90;;;;;;5074664;28;20206;-69
2022/04/01 03:00:09;;;;;;;21.90;14.73;;;5.70;99.90;;;;;;5074286;28;20285;-70
2022/04/01 03:02:37;;;;;;;22.75;15.07;;;5.70;99.90;;;;;;5074593;28;20245;-69
2022/04/01 03:05:05;;;;;;;23.42;15.95;;;5.50;99.90;;;;;;5074299;28;20570;-69
2022/04/01 03:07:34;;;;;;;25.38;15.93;;;5.40;99.90;;;;;;5074395;28;20683;-69
2022/04/01 03:10:01;;;;;;;22.23;15.90;;;5.30;99.90;;;;;;5074119;28;20223;-69
2022/04/01 03:12:27;;;;;;;22.63;16.00;;;5.30;99.90;;;;;;5074450;28;20618;-69
2022/04/01 03:14:54;;;;;;;23.33;14.35;;;5.20;99.90;;;;;;5073986;28;20264;-69
2022/04/01 03:17:21;;;;;;;21.00;13.77;;;5.30;99.90;;;;;;5074259;28;20213;-69
2022/04/01 03:19:48;;;;;;;21.67;14.98;;;5.40;99.90;;;;;;5074145;28;20219;-69
2022/04/01 03:22:15;;;;;;;18.38;12.98;;;5.50;99.90;;;;;;5073939;28;20203;-69
2022/04/01 03:24:43;;;;;;;18.75;13.23;;;5.50;99.90;;;;;;5074012;28;20575;-69
2022/04/01 03:27:10;;;;;;;18.15;13.10;;;5.30;99.90;;;;;;5073905;28;21179;-69
2022/04/01 03:29:37;;;;;;;16.45;11.07;;;5.20;99.90;;;;;;5074107;28;20254;-70
2022/04/01 03:32:04;;;;;;;19.60;13.10;;;5.20;99.90;;;;;;5074080;28;20203;-69
2022/04/01 03:34:32;;;;;;;18.85;12.52;;;5.30;99.90;;;;;;5073600;28;20661;-69
2022/04/01 03:36:59;;;;;;;17.52;12.10;;;5.30;99.90;;;;;;5073882;28;20293;-70
2022/04/01 03:39:26;;;;;;;19.00;12.23;;;5.40;99.90;;;;;;5073903;28;20226;-69
2022/04/01 03:41:54;;;;;;;19.75;13.20;;;5.40;99.90;;;;;;5073735;28;20199;-70
2022/04/01 03:44:24;;;;;;;20.55;13.45;;;5.40;99.90;;;;;;5073757;28;20301;-69
2022/04/01 03:47:00;;;;;;;19.55;13.35;;;5.40;99.90;;;;;;5073784;28;20257;-69
2022/04/01 03:49:29;;;;;;;20.17;14.55;;;5.50;99.90;;;;;;5073691;28;20594;-70
2022/04/01 03:51:56;;;;;;;22.35;14.13;;;5.40;99.90;;;;;;5073878;28;20202;-70
2022/04/01 03:54:24;;;;;;;22.02;14.48;;;5.40;99.90;;;;;;5073401;28;20207;-69
2022/04/01 03:57:00;;;;;;;27.42;17.15;;;5.30;99.90;;;;;;5073722;28;20600;-69
2022/04/01 03:59:40;;;;;;;21.45;14.23;;;5.30;99.90;;;;;;5073645;28;20226;-69
2022/04/01 04:02:10;;;;;;;22.35;14.07;;;5.30;99.90;;;;;;5073443;28;20226;-69
2022/04/01 04:04:37;;;;;;;23.08;15.52;;;5.30;99.90;;;;;;5073519;28;20249;-69
2022/04/01 04:07:06;;;;;;;23.58;15.95;;;5.30;99.90;;;;;;5073542;28;20222;-69
2022/04/01 04:09:35;;;;;;;24.92;15.80;;;5.20;99.90;;;;;;5073524;28;20222;-69
2022/04/01 04:12:04;;;;;;;27.38;17.38;;;5.10;99.90;;;;;;5073303;28;20242;-69
2022/04/01 04:14:32;;;;;;;22.77;16.77;;;5.00;99.90;;;;;;5073175;28;20214;-69
2022/04/01 04:17:05;;;;;;;27.42;17.27;;;5.10;99.90;;;;;;5073275;28;20724;-70
2022/04/01 04:19:42;;;;;;;27.00;16.42;;;5.20;99.90;;;;;;5073181;28;20708;-69
2022/04/01 04:22:13;;;;;;;24.63;17.33;;;5.10;99.90;;;;;;5073394;28;20205;-69
2022/04/01 04:24:44;;;;;;;22.85;15.95;;;5.20;99.90;;;;;;5073039;28;20661;-69
2022/04/01 04:27:15;;;;;;;22.65;15.93;;;5.20;99.90;;;;;;5073158;28;20245;-70
2022/04/01 04:29:48;;;;;;;21.35;15.10;;;5.10;99.90;;;;;;5073428;28;20230;-69
2022/04/01 04:32:22;;;;;;;23.08;16.17;;;5.20;99.90;;;;;;5073409;28;20207;-69
2022/04/01 04:34:51;;;;;;;23.63;15.02;;;5.10;99.90;;;;;;5073206;28;20210;-69
2022/04/01 04:37:22;;;;;;;20.50;14.90;;;4.90;99.90;;;;;;5073272;28;20561;-69
2022/04/01 04:39:50;;;;;;;22.15;15.55;;;4.90;99.90;;;;;;5073324;28;20223;-69
2022/04/01 04:42:19;;;;;;;21.70;14.40;;;5.00;99.90;;;;;;5073337;28;20209;-69
2022/04/01 04:44:46;;;;;;;21.60;15.95;;;5.00;99.90;;;;;;5073045;28;20203;-69
2022/04/01 04:47:14;;;;;;;23.95;15.80;;;4.90;99.90;;;;;;5073159;28;20230;-69
2022/04/01 04:49:43;;;;;;;21.20;14.10;;;4.80;99.90;;;;;;5072974;28;20222;-69
2022/04/01 04:52:10;;;;;;;19.23;13.75;;;4.90;99.90;;;;;;5073171;28;20207;-69
2022/04/01 04:54:40;;;;;;;18.85;13.73;;;5.00;99.90;;;;;;5072755;28;20259;-69
2022/04/01 04:57:08;;;;;;;22.10;13.52;;;4.90;99.90;;;;;;5073123;28;20203;-69
2022/04/01 04:59:38;;;;;;;18.90;13.77;;;5.10;99.90;;;;;;5073060;28;20588;-69
2022/04/01 05:02:06;;;;;;;21.25;14.15;;;5.00;99.90;;;;;;5072820;28;20202;-69
2022/04/01 05:04:46;;;;;;;18.10;13.00;;;5.10;99.90;;;;;;5072694;28;20213;-69
2022/04/01 05:07:26;;;;;;;16.65;12.20;;;5.20;99.90;;;;;;5073765;28;20228;-69
2022/04/01 05:10:00;;;;;;;17.98;11.80;;;5.40;99.90;;;;;;5076763;28;20620;-70
2022/04/01 05:12:33;;;;;;;15.70;12.60;;;5.20;99.90;;;;;;5076710;28;20207;-69
2022/04/01 05:15:09;;;;;;;16.85;12.32;;;5.10;99.90;;;;;;5076233;28;20207;-69
2022/04/01 05:17:37;;;;;;;15.75;12.15;;;5.10;99.90;;;;;;5077204;28;20209;-69
2022/04/01 05:20:11;;;;;;;17.52;12.45;;;5.00;99.90;;;;;;5076529;28;20226;-69
2022/04/01 05:22:47;;;;;;;17.38;11.95;;;5.00;99.90;;;;;;5076539;28;20291;-70
2022/04/01 05:25:19;;;;;;;17.35;12.38;;;4.90;99.90;;;;;;5076291;28;20263;-70
2022/04/01 05:27:49;;;;;;;16.70;12.13;;;4.90;99.90;;;;;;5075973;28;20765;-70
2022/04/01 05:30:20;;;;;;;17.65;11.88;;;4.80;99.90;;;;;;5076101;28;20721;-69
2022/04/01 05:32:59;;;;;;;15.05;11.43;;;4.80;99.90;;;;;;5076385;28;20210;-69
2022/04/01 05:35:29;;;;;;;16.00;11.10;;;4.90;99.90;;;;;;5076306;28;20555;-69
2022/04/01 05:37:57;;;;;;;16.77;11.57;;;4.80;99.90;;;;;;5076479;28;20549;-69
2022/04/01 05:40:24;;;;;;;16.52;11.70;;;4.80;99.90;;;;;;5076169;28;20227;-69
2022/04/01 05:42:53;;;;;;;15.85;11.48;;;4.80;99.90;;;;;;5076218;28;20560;-69
2022/04/01 05:45:21;;;;;;;16.13;10.93;;;4.90;99.90;;;;;;5075863;28;20665;-69
2022/04/01 05:47:49;;;;;;;14.20;11.55;;;5.10;99.90;;;;;;5076000;28;20580;-70
2022/04/01 05:50:19;;;;;;;13.75;11.18;;;5.00;99.90;;;;;;5075703;28;20223;-69
2022/04/01 05:52:48;;;;;;;12.90;9.63;;;5.00;99.90;;;;;;5075998;28;20605;-69
2022/04/01 05:55:16;;;;;;;12.13;9.32;;;4.80;99.90;;;;;;5075752;28;20248;-69
2022/04/01 05:57:42;;;;;;;13.55;9.75;;;4.70;99.90;;;;;;5075832;28;20206;-69
2022/04/01 06:00:12;;;;;;;13.23;9.63;;;4.60;99.90;;;;;;5075826;28;20222;-69
2022/04/01 06:02:57;;;;;;;15.30;10.55;;;4.50;99.90;;;;;;5075694;28;20234;-69
2022/04/01 06:05:29;;;;;;;13.32;10.35;;;4.70;99.90;;;;;;5075727;28;20611;-69
2022/04/01 06:08:07;;;;;;;10.73;8.57;;;4.80;99.90;;;;;;5075705;28;20578;-69
2022/04/01 06:10:42;;;;;;;11.65;9.60;;;4.80;99.90;;;;;;5075668;28;20283;-69
2022/04/01 06:13:19;;;;;;;11.05;8.68;;;4.80;99.90;;;;;;5075383;28;20202;-69
2022/04/01 06:16:03;;;;;;;10.48;9.18;;;4.90;99.90;;;;;;5075604;28;20206;-69
2022/04/01 06:18:44;;;;;;;9.82;8.05;;;4.70;99.90;;;;;;5074478;28;20217;-70
2022/04/01 06:21:16;;;;;;;12.45;9.13;;;4.70;99.90;;;;;;5075499;28;20191;-70
2022/04/01 06:24:06;;;;;;;10.85;8.20;;;4.70;99.90;;;;;;5075256;28;20206;-70
2022/04/01 06:26:39;;;;;;;10.63;7.53;;;4.90;99.90;;;;;;5075284;28;20304;-70
2022/04/01 06:29:21;;;;;;;10.43;8.65;;;5.00;99.90;;;;;;5075123;28;20230;-70
2022/04/01 06:31:52;;;;;;;9.48;7.80;;;4.80;99.90;;;;;;5075351;28;20191;-70
2022/04/01 06:34:23;;;;;;;11.40;8.57;;;4.80;99.90;;;;;;5074838;28;20203;-69
2022/04/01 06:36:52;;;;;;;10.75;8.50;;;4.70;99.90;;;;;;5075220;28;20553;-69
2022/04/01 06:39:27;;;;;;;11.80;8.50;;;4.80;99.90;;;;;;5075018;28;20656;-70
2022/04/01 06:41:57;;;;;;;14.73;9.82;;;4.80;99.90;;;;;;5075090;28;20193;-69
2022/04/01 06:44:24;;;;;;;20.17;13.30;;;5.00;99.90;;;;;;5074611;28;20199;-69
2022/04/01 06:46:51;;;;;;;19.15;12.40;;;5.10;99.90;;;;;;5074859;28;20233;-69
2022/04/01 06:49:18;;;;;;;16.00;11.75;;;5.10;99.90;;;;;;5074868;28;20219;-70
2022/04/01 06:51:47;;;;;;;20.58;14.02;;;5.20;99.90;;;;;;5074734;28;20207;-70
2022/04/01 06:54:14;;;;;;;20.35;13.38;;;5.20;99.90;;;;;;5074527;28;20619;-69
2022/04/01 06:56:41;;;;;;;16.67;11.20;;;5.00;99.90;;;;;;5074753;28;20542;-70
2022/04/01 06:59:08;;;;;;;17.15;11.82;;;5.00;99.90;;;;;;5074595;28;20279;-70
2022/04/01 07:01:35;;;;;;;18.55;12.90;;;5.10;99.90;;;;;;5074480;28;20199;-70
2022/04/01 07:04:02;;;;;;;17.38;12.80;;;5.10;99.90;;;;;;5074274;28;20684;-69
2022/04/01 07:06:29;;;;;;;19.92;13.27;;;5.20;99.90;;;;;;5074564;28;20223;-70
2022/04/01 07:08:57;;;;;;;19.17;12.95;;;5.20;99.90;;;;;;5074471;28;20262;-70
2022/04/01 07:11:24;;;;;;;18.50;12.38;;;5.30;99.90;;;;;;5074536;28;20206;-70
2022/04/01 07:13:52;;;;;;;19.48;13.38;;;5.40;99.90;;;;;;5074312;28;20198;-70
2022/04/01 07:16:18;;;;;;;21.33;13.68;;;5.40;99.90;;;;;;5074140;28;20683;-70
2022/04/01 07:18:45;;;;;;;17.77;13.23;;;5.50;99.90;;;;;;5074222;28;20314;-70
2022/04/01 07:21:13;;;;;;;17.25;13.05;;;5.50;99.90;;;;;;5074368;28;20199;-70
2022/04/01 07:23:40;;;;;;;17.35;12.40;;;5.40;99.90;;;;;;5073891;28;20214;-69
2022/04/01 07:26:09;;;;;;;18.70;12.40;;;5.30;99.90;;;;;;5074050;28;20293;-70
2022/04/01 07:28:36;;;;;;;18.45;12.10;;;5.10;99.90;;;;;;5073641;28;20232;-69
2022/04/01 07:32:29;;;;;;;18.38;12.55;;;5.00;99.90;;;;;;5073542;28;20449;-70
2022/04/01 07:33:50;;;;;;;16.23;11.85;;;4.90;99.90;;;;;;5073517;28;20206;-69
2022/04/01 07:36:19;;;;;;;17.60;12.38;;;4.90;99.90;;;;;;5073940;28;20675;-70
2022/04/01 07:38:46;;;;;;;16.05;12.35;;;5.00;99.90;;;;;;5074358;28;20588;-69
2022/04/01 07:41:14;;;;;;;17.80;12.30;;;4.90;99.90;;;;;;5074006;28;20209;-70
2022/04/01 07:43:41;;;;;;;16.67;11.85;;;4.80;99.90;;;;;;5073700;28;20657;-69
2022/04/01 07:46:07;;;;;;;20.55;13.10;;;4.60;99.90;;;;;;5073895;28;20205;-70
2022/04/01 07:48:34;;;;;;;17.15;11.18;;;4.80;99.90;;;;;;5073596;28;20229;-70
2022/04/01 07:51:01;;;;;;;18.48;12.75;;;4.80;99.90;;;;;;5073904;28;20206;-70
2022/04/01 07:53:28;;;;;;;19.38;12.57;;;4.80;99.90;;;;;;5073365;28;20210;-69
2022/04/01 07:55:55;;;;;;;20.00;13.98;;;4.80;99.90;;;;;;5073770;28;20301;-69
2022/04/01 07:58:23;;;;;;;18.75;12.48;;;4.80;99.90;;;;;;5073525;28;20638;-70
2022/04/01 08:00:50;;;;;;;20.58;13.75;;;4.70;99.90;;;;;;5073731;28;20205;-70
2022/04/01 08:03:17;;;;;;;18.25;12.65;;;4.90;99.90;;;;;;5073436;28;20203;-70
2022/04/01 08:05:43;;;;;;;19.98;13.73;;;4.90;99.90;;;;;;5073584;28;20206;-70
2022/04/01 08:08:10;;;;;;;19.88;14.07;;;4.80;99.90;;;;;;5073564;28;20229;-70
2022/04/01 08:10:37;;;;;;;23.48;14.02;;;4.70;99.90;;;;;;5073563;28;20218;-69
2022/04/01 08:13:04;;;;;;;20.17;14.40;;;4.70;99.90;;;;;;5073256;28;20633;-69
2022/04/01 08:15:33;;;;;;;20.55;13.20;;;4.70;99.90;;;;;;5073435;28;20203;-69
2022/04/01 08:18:00;;;;;;;17.60;12.95;;;4.70;99.90;;;;;;5073505;28;20627;-69
2022/04/01 08:20:26;;;;;;;20.20;13.10;;;4.80;99.90;;;;;;5073190;28;20318;-70
2022/04/01 08:22:53;;;;;;;19.80;11.43;;;4.60;99.90;;;;;;5073518;28;20206;-69
2022/04/01 08:25:20;;;;;;;18.17;12.63;;;4.60;99.90;;;;;;5073502;28;20203;-70
2022/04/01 08:27:47;;;;;;;20.67;13.43;;;4.70;99.90;;;;;;5073142;28;20225;-69
2022/04/01 08:30:14;;;;;;;17.05;13.05;;;4.70;99.90;;;;;;5073278;28;20318;-69
2022/04/01 08:32:42;;;;;;;18.85;13.60;;;4.60;99.90;;;;;;5073036;28;20575;-69
2022/04/01 08:35:10;;;;;;;20.52;13.63;;;4.60;99.90;;;;;;5073219;28;20289;-69
2022/04/01 08:37:38;;;;;;;18.35;12.30;;;4.40;99.90;;;;;;5073337;28;20207;-70
2022/04/01 08:40:06;;;;;;;19.25;13.18;;;4.40;99.90;;;;;;5073288;28;20229;-69
2022/04/01 08:42:35;;;;;;;18.63;13.13;;;4.50;99.90;;;;;;5074966;28;20217;-70
2022/04/01 08:45:06;;;;;;;16.88;10.95;;;4.60;99.90;;;;;;5077069;28;20207;-69
2022/04/01 08:47:35;;;;;;;18.67;12.43;;;4.80;99.90;;;;;;5076884;28;20664;-70
2022/04/01 08:50:03;;;;;;;14.25;10.40;;;4.80;99.90;;;;;;5076914;28;20226;-70
2022/04/01 08:52:30;;;;;;;17.92;12.20;;;4.70;99.90;;;;;;5077156;28;20289;-70
2022/04/01 08:55:03;;;;;;;17.67;12.10;;;4.60;99.90;;;;;;5076929;28;20198;-69
2022/04/01 08:57:35;;;;;;;18.08;12.20;;;4.50;99.90;;;;;;5076970;28;20195;-70
2022/04/01 09:00:02;;;;;;;17.80;13.52;;;4.60;99.90;;;;;;5076742;28;20227;-70
2022/04/01 09:02:29;;;;;;;18.83;12.95;;;4.50;99.90;;;;;;5076724;28;20203;-70
2022/04/01 09:05:06;;;;;;;17.15;11.85;;;4.20;99.90;;;;;;5076708;28;20202;-69
2022/04/01 09:07:32;;;;;;;20.60;12.75;;;4.00;99.90;;;;;;5076787;28;20224;-69
2022/04/01 09:10:02;;;;;;;18.25;11.43;;;4.10;99.90;;;;;;5076758;28;20233;-69
2022/04/01 09:12:29;;;;;;;15.65;11.35;;;4.20;99.90;;;;;;5076484;28;20661;-70
2022/04/01 09:14:57;;;;;;;15.95;10.15;;;4.10;99.90;;;;;;5076459;28;20199;-69
2022/04/01 09:17:40;;;;;;;14.90;10.75;;;4.00;99.90;;;;;;5076626;28;20203;-70
2022/04/01 09:20:10;;;;;;;15.85;10.85;;;3.90;99.90;;;;;;5076325;28;20722;-69
2022/04/01 09:22:37;;;;;;;15.27;10.80;;;4.00;99.90;;;;;;5076442;28;20206;-70
2022/04/01 09:25:07;;;;;;;18.45;11.65;;;4.20;99.90;;;;;;5076029;28;20206;-69
2022/04/01 09:27:46;;;;;;;15.95;10.88;;;4.20;99.90;;;;;;5076066;28;20230;-70
2022/04/01 09:30:15;;;;;;;16.70;12.40;;;4.30;99.90;;;;;;5076474;28;20288;-70
2022/04/01 09:32:44;;;;;;;16.98;11.65;;;4.30;99.90;;;;;;5076353;28;20205;-70
2022/04/01 09:35:13;;;;;;;17.92;12.45;;;4.20;99.90;;;;;;5076042;28;20665;-70
2022/04/01 09:37:43;;;;;;;16.02;11.43;;;4.10;99.90;;;;;;5076270;28;20198;-70
2022/04/01 09:40:12;;;;;;;19.48;12.30;;;4.30;99.90;;;;;;5075837;28;20700;-70
2022/04/01 09:42:39;;;;;;;19.40;12.65;;;4.20;99.90;;;;;;5076175;28;20293;-70
2022/04/01 09:45:07;;;;;;;22.98;13.43;;;4.30;99.90;;;;;;5075983;28;20209;-70
2022/04/01 09:47:38;;;;;;;16.00;11.98;;;4.40;99.90;;;;;;5075961;28;20245;-70
2022/04/01 09:50:15;;;;;;;15.45;9.95;;;4.50;99.90;;;;;;5075731;28;20222;-70
2022/04/01 09:52:42;;;;;;;14.23;8.77;;;4.30;99.90;;;;;;5076048;28;20205;-70
2022/04/01 09:55:10;;;;;;;11.40;8.60;;;4.50;99.90;;;;;;5075827;28;20205;-69
2022/04/01 09:57:37;;;;;;;10.48;8.73;;;4.50;99.90;;;;;;5075894;28;20568;-70
2022/04/01 10:00:06;;;;;;;11.05;8.38;;;4.50;99.90;;;;;;5075807;28;20580;-69
2022/04/01 10:02:33;;;;;;;11.00;8.50;;;4.50;99.90;;;;;;5075843;28;20561;-70
2022/04/01 10:05:00;;;;;;;13.10;9.35;;;4.60;99.90;;;;;;5075629;28;20238;-70
2022/04/01 10:07:33;;;;;;;11.77;8.77;;;4.80;99.90;;;;;;5075658;28;20222;-70
2022/04/01 10:10:04;;;;;;;9.90;7.13;;;4.80;99.90;;;;;;5075743;28;20309;-69
2022/04/01 10:12:35;;;;;;;9.20;7.57;;;4.80;99.90;;;;;;5075685;28;20206;-70
2022/04/01 10:15:02;;;;;;;10.85;7.20;;;4.90;99.90;;;;;;5075218;28;20683;-69
2022/04/01 10:17:30;;;;;;;8.90;6.90;;;5.00;99.90;;;;;;5075534;28;20289;-70
2022/04/01 10:20:00;;;;;;;10.60;7.25;;;5.10;99.90;;;;;;5075503;28;20227;-70
2022/04/01 10:22:28;;;;;;;10.38;7.82;;;5.00;99.90;;;;;;5075499;28;20202;-70
2022/04/01 10:25:03;;;;;;;9.95;7.75;;;4.90;99.90;;;;;;5075272;28;20297;-69
2022/04/01 10:27:36;;;;;;;8.60;7.30;;;4.90;99.90;;;;;;5075073;28;20754;-70
2022/04/01 10:30:04;;;;;;;8.20;6.55;;;5.00;99.90;;;;;;5075302;28;20226;-70
2022/04/01 10:32:37;;;;;;;12.30;8.07;;;5.00;99.90;;;;;;5075216;28;20209;-70
2022/04/01 10:35:07;;;;;;;9.85;6.93;;;5.10;99.90;;;;;;5075136;28;20308;-69
2022/04/01 10:37:37;;;;;;;7.40;6.20;;;4.90;99.90;;;;;;5075140;28;20550;-69
2022/04/01 10:40:09;;;;;;;7.65;6.70;;;4.80;99.90;;;;;;5074854;28;20218;-69
2022/04/01 10:42:38;;;;;;;5.72;5.13;;;4.60;99.90;;;;;;5075050;28;20572;-69
2022/04/01 10:45:08;;;;;;;7.00;6.28;;;4.40;99.90;;;;;;5074843;28;20209;-69
2022/04/01 10:53:42;;;;;;;7.43;6.63;;;4.40;99.90;;;;;;5074520;28;20236;-70
2022/04/01 10:56:36;;;;;;;9.05;7.68;;;4.30;99.90;;;;;;5074709;28;20198;-69
2022/04/01 10:59:10;;;;;;;7.43;6.72;;;4.50;99.90;;;;;;5074727;28;20219;-70
2022/04/01 11:01:40;;;;;;;7.80;6.90;;;4.50;99.90;;;;;;5074656;28;20206;-70
2022/04/01 11:04:30;;;;;;;9.63;7.60;;;4.40;99.90;;;;;;5074117;28;20202;-70
2022/04/01 11:06:58;;;;;;;8.10;7.25;;;4.40;99.90;;;;;;5074468;28;20277;-69
2022/04/01 11:09:40;;;;;;;8.77;7.60;;;4.20;99.90;;;;;;5074394;28;20315;-69
2022/04/01 11:12:36;;;;;;;8.50;7.20;;;4.20;99.90;;;;;;5074338;28;20733;-69
2022/04/01 11:15:25;;;;;;;11.25;9.43;;;4.30;99.90;;;;;;5074192;28;20207;-69
2022/04/01 11:18:06;;;;;;;9.45;8.15;;;4.10;99.90;;;;;;5074132;28;20195;-70
2022/04/01 11:20:35;;;;;;;10.00;8.82;;;4.00;99.90;;;;;;5074273;28;20222;-69
2022/04/01 11:23:06;;;;;;;11.35;9.85;;;3.80;99.90;;;;;;5073956;28;20293;-69
2022/04/01 11:25:56;;;;;;;10.57;8.00;;;3.80;99.90;;;;;;5074122;28;20198;-69
2022/04/01 11:28:25;;;;;;;8.93;8.00;;;3.80;99.90;;;;;;5073111;28;20706;-69
2022/04/01 11:31:09;;;;;;;11.63;8.30;;;3.70;99.90;;;;;;5073365;28;20207;-69
2022/04/01 11:33:36;;;;;;;9.80;7.95;;;3.90;99.90;;;;;;5073167;28;20568;-69
2022/04/01 11:36:04;;;;;;;10.70;8.02;;;4.00;99.90;;;;;;5073149;28;20199;-69
2022/04/01 11:38:31;;;;;;;11.25;9.05;;;4.00;99.90;;;;;;5073142;28;20607;-70
2022/04/01 11:41:03;;;;;;;10.40;9.30;;;4.10;99.90;;;;;;5073292;28;20206;-69
2022/04/01 11:43:31;;;;;;;9.00;7.30;;;4.30;99.90;;;;;;5072761;28;20730;-69
2022/04/01 11:46:02;;;;;;;9.00;7.38;;;4.40;99.90;;;;;;5073006;28;20718;-69
2022/04/01 11:48:31;;;;;;;9.15;7.53;;;4.40;99.90;;;;;;5072965;28;20576;-69
2022/04/01 11:51:00;;;;;;;9.20;7.72;;;4.10;99.90;;;;;;5072776;28;20210;-69
2022/04/01 11:53:30;;;;;;;9.13;7.85;;;4.20;99.90;;;;;;5072744;28;20693;-69
2022/04/01 11:55:57;;;;;;;9.30;7.65;;;4.40;99.90;;;;;;5073012;28;20202;-69
2022/04/01 11:58:27;;;;;;;10.63;8.48;;;4.40;99.90;;;;;;5072716;28;20293;-69
2022/04/01 12:00:54;;;;;;;9.27;8.02;;;4.10;99.90;;;;;;5072987;28;20565;-69
2022/04/01 12:03:21;;;;;;;10.05;7.85;;;4.20;99.90;;;;;;5072639;28;20209;-70
2022/04/01 12:08:41;;;;;;;7.82;6.68;;;4.30;99.90;;;;;;5072827;28;20246;-69
2022/04/01 12:08:42;;;;;;;9.05;8.15;;;4.10;99.90;;;;;;5072525;28;20672;-69
2022/04/01 12:11:09;;;;;;;8.88;7.95;;;4.00;99.90;;;;;;5072588;28;20263;-69
2022/04/01 12:13:48;;;;;;;9.50;7.78;;;3.80;99.90;;;;;;5072553;28;20328;-69
2022/04/01 12:16:16;;;;;;;9.80;8.65;;;3.90;99.90;;;;;;5071897;28;20260;-69
2022/04/01 12:18:46;;;;;;;10.02;8.35;;;4.10;99.90;;;;;;5072217;28;20595;-69
2022/04/01 12:21:17;;;;;;;10.73;9.43;;;4.00;99.90;;;;;;5072775;28;20217;-69
2022/04/01 12:23:45;;;;;;;11.23;8.48;;;4.00;99.90;;;;;;5072414;28;20214;-69
2022/04/01 12:26:13;;;;;;;13.05;9.90;;;3.80;99.90;;;;;;5072539;28;20207;-69
2022/04/01 12:28:43;;;;;;;12.52;10.00;;;4.00;99.90;;;;;;5035445;28;1072839;-69
2022/04/01 12:31:18;;;;;;;13.52;10.35;;;4.00;99.90;;;;;;5073541;28;20222;-69
2022/04/01 12:33:47;;;;;;;11.23;9.57;;;4.10;99.90;;;;;;5073261;28;20202;-69
2022/04/01 12:36:14;;;;;;;11.57;9.20;;;4.40;99.90;;;;;;5073130;28;20202;-69
2022/04/01 12:38:42;;;;;;;13.05;9.32;;;4.50;99.90;;;;;;5073267;28;20670;-69
2022/04/01 12:41:17;;;;;;;13.93;9.82;;;4.20;99.90;;;;;;5073039;28;20683;-69
2022/04/01 12:43:46;;;;;;;12.93;9.93;;;4.20;99.90;;;;;;5073063;28;20213;-69
2022/04/01 12:46:15;;;;;;;12.75;9.82;;;4.00;99.90;;;;;;5073147;28;20203;-69
2022/04/01 12:48:46;;;;;;;14.40;9.90;;;4.00;99.90;;;;;;5073072;28;20227;-69
2022/04/01 12:51:21;;;;;;;13.63;11.10;;;4.20;99.90;;;;;;5072978;28;20187;-69
2022/04/01 12:53:58;;;;;;;12.30;9.80;;;4.40;99.90;;;;;;5073046;28;20224;-69
2022/04/01 12:56:28;;;;;;;12.50;9.73;;;4.10;99.90;;;;;;5073187;28;20217;-69
2022/04/01 12:58:58;;;;;;;14.73;8.98;;;3.90;99.90;;;;;;5073199;28;20226;-69
2022/04/01 13:01:26;;;;;;;14.60;10.70;;;3.90;99.90;;;;;;5072895;28;20264;-69
2022/04/01 13:03:55;;;;;;;12.35;9.70;;;3.90;99.90;;;;;;5072674;28;20198;-69
2022/04/01 13:06:25;;;;;;;15.13;11.82;;;3.80;99.90;;;;;;5073087;28;20207;-69